Impacts TAF Board
For situational awareness. Not to be used for flight planning purposes.
IDs:

KAEG - Albuquerque/Double E, NM, US

Issued at 1738 UTC 02 Aug 2021
Updated at 2125 UTC 02 Aug 2021
Potential Impact None Slight Moderate High
Time2047Z 02/22Z 02/23Z 03/00Z 03/01Z 03/02Z 03/03Z 03/04Z 03/05Z 03/06Z 03/07Z 03/08Z 03/09Z 03/10Z>>
Type OBS PRVL PRVL PRVL PRVL PRVL PRVL PRVL PRVL PRVL PRVL PRVL PRVL PRVL
VIS 10 >6 >6 >6 >6 >6 >6 >6 >6 >6 >6 >6 >6 >6
CIG -- 100 100 90 90 90 90 100 100 100 -- -- -- --
Cover SCT BKN BKN BKN BKN BKN BKN BKN BKN BKN SCT SCT SCT SCT
FltCat VFR VFR VFR VFR VFR VFR VFR VFR VFR VFR VFR VFR VFR VFR
WX -- -- -- VCTS VCTS VCTS VCTS VCSH VCSH VCSH -- -- -- --
WDir VRB VRB VRB 300 300 300 300 330 330 330 VRB VRB VRB VRB
WSpd 5 6 6 8 8 8 8 10 10 10 3 3 3 3
WGst -- -- -- -- -- -- -- -- -- -- -- -- -- --
Raw TAF
KAEG 021738Z 0218/0318 VRB06KT P6SM SCT070 BKN100
  FM030000 30008KT P6SM VCTS SCT070CB BKN090
  FM030400 33010KT P6SM VCSH SCT080 BKN100
  FM030700 VRB03KT P6SM SCT120


Raw METAR
KAEG 022047Z VRB05KT 10SM SCT070 24/14 A3034 RMK SHRA DSNT W
KAEG 021950Z 00000KT 10SM CLR 23/14 A3036 RMK LTG DSNT NE SW
KAEG 021850Z 02003KT 10SM SCT120 21/14 A3038 RMK LTG DSNT SW W

METAR Board
Radar Display
Forecast Discussion
For situational awareness. Not to be used for flight planning purposes.